sensor_id;sensor_type;location;lat;lon;timestamp;pressure;altitude;pressure_sealevel;temperature;humidity
54439;BME280;40347;53.848;27.498;2023-02-11T00:01:07;1020.3;;;1.6;67.6
54439;BME280;40347;53.848;27.498;2023-02-11T00:06:07;1020.3;;;1.7;67.6
54439;BME280;40347;53.848;27.498;2023-02-11T00:11:29;1020.1;;;1.8;67.6
54439;BME280;40347;53.848;27.498;2023-02-11T00:16:07;1020.1;;;1.8;67.5
54439;BME280;40347;53.848;27.498;2023-02-11T00:21:29;1020.1;;;1.8;67.4
54439;BME280;40347;53.848;27.498;2023-02-11T00:26:10;1020.1;;;1.8;67.4
54439;BME280;40347;53.848;27.498;2023-02-11T00:31:17;1020.1;;;1.9;67.5
54439;BME280;40347;53.848;27.498;2023-02-11T00:36:07;1020.1;;;1.9;67.4
54439;BME280;40347;53.848;27.498;2023-02-11T00:41:07;1019.9;;;2;67.3
54439;BME280;40347;53.848;27.498;2023-02-11T00:46:45;1019.8;;;2.1;67.4
54439;BME280;40347;53.848;27.498;2023-02-11T00:51:19;1019.8;;;2.2;67.4
54439;BME280;40347;53.848;27.498;2023-02-11T00:56:17;1019.8;;;2.2;67.1
54439;BME280;40347;53.848;27.498;2023-02-11T01:01:15;1019.7;;;2.3;67
54439;BME280;40347;53.848;27.498;2023-02-11T01:06:07;1019.6;;;2.3;67
54439;BME280;40347;53.848;27.498;2023-02-11T01:11:10;1019.4;;;2.3;66.8
54439;BME280;40347;53.848;27.498;2023-02-11T01:16:18;1019.3;;;2.3;66.7
54439;BME280;40347;53.848;27.498;2023-02-11T01:21:07;1019.3;;;2.2;67.1
54439;BME280;40347;53.848;27.498;2023-02-11T01:26:41;1019.2;;;2.2;67.3
54439;BME280;40347;53.848;27.498;2023-02-11T01:31:07;1019.2;;;2.4;67.3
54439;BME280;40347;53.848;27.498;2023-02-11T01:36:17;1019.1;;;2.4;67.2
54439;BME280;40347;53.848;27.498;2023-02-11T01:41:08;1019.1;;;2.5;66.9
54439;BME280;40347;53.848;27.498;2023-02-11T01:46:23;1018.9;;;2.6;66.7
54439;BME280;40347;53.848;27.498;2023-02-11T01:51:11;1018.8;;;2.6;66.6
54439;BME280;40347;53.848;27.498;2023-02-11T01:56:41;1018.8;;;2.6;66.7
54439;BME280;40347;53.848;27.498;2023-02-11T02:01:07;1018.7;;;2.6;66.8
54439;BME280;40347;53.848;27.498;2023-02-11T02:06:09;1018.6;;;2.6;66.8
54439;BME280;40347;53.848;27.498;2023-02-11T02:11:17;1018.5;;;2.6;66.8
54439;BME280;40347;53.848;27.498;2023-02-11T02:16:10;1018.5;;;2.7;66.8
54439;BME280;40347;53.848;27.498;2023-02-11T02:21:28;1018.3;;;2.8;66.6
54439;BME280;40347;53.848;27.498;2023-02-11T02:26:33;1018.1;;;2.8;66.6
54439;BME280;40347;53.848;27.498;2023-02-11T02:31:23;1018.1;;;2.9;66.5
54439;BME280;40347;53.848;27.498;2023-02-11T02:36:17;1018.1;;;2.8;66.7
54439;BME280;40347;53.848;27.498;2023-02-11T02:41:07;1017.9;;;2.7;66.9
54439;BME280;40347;53.848;27.498;2023-02-11T02:46:09;1017.8;;;2.7;67.2
54439;BME280;40347;53.848;27.498;2023-02-11T02:51:09;1017.7;;;2.8;67.6
54439;BME280;40347;53.848;27.498;2023-02-11T02:56:40;1017.7;;;2.8;67.6
54439;BME280;40347;53.848;27.498;2023-02-11T03:01:20;1017.5;;;2.7;67.6
54439;BME280;40347;53.848;27.498;2023-02-11T03:06:07;1017.5;;;2.8;67.7
54439;BME280;40347;53.848;27.498;2023-02-11T03:11:07;1017.4;;;2.8;67.6
54439;BME280;40347;53.848;27.498;2023-02-11T03:16:08;1017.3;;;2.8;67.6
54439;BME280;40347;53.848;27.498;2023-02-11T03:21:17;1017.2;;;2.7;67.7
54439;BME280;40347;53.848;27.498;2023-02-11T03:26:20;1017.2;;;2.6;67.6
54439;BME280;40347;53.848;27.498;2023-02-11T03:31:16;1017.1;;;2.6;67.6
54439;BME280;40347;53.848;27.498;2023-02-11T03:36:31;1016.9;;;2.6;68
54439;BME280;40347;53.848;27.498;2023-02-11T03:41:39;1016.9;;;2.5;68
54439;BME280;40347;53.848;27.498;2023-02-11T03:46:20;1016.7;;;2.5;68.1
54439;BME280;40347;53.848;27.498;2023-02-11T03:51:08;1016.6;;;2.5;68.1
54439;BME280;40347;53.848;27.498;2023-02-11T03:56:18;1016.5;;;2.3;68.4
54439;BME280;40347;53.848;27.498;2023-02-11T04:01:17;1016.4;;;2.2;68.7
54439;BME280;40347;53.848;27.498;2023-02-11T04:06:19;1016.4;;;2.1;69.4
54439;BME280;40347;53.848;27.498;2023-02-11T04:11:17;1016.3;;;1.9;70.1
54439;BME280;40347;53.848;27.498;2023-02-11T04:16:17;1016.2;;;1.9;70.4
54439;BME280;40347;53.848;27.498;2023-02-11T04:21:07;1016;;;1.9;70.5
54439;BME280;40347;53.848;27.498;2023-02-11T04:26:07;1015.9;;;1.9;70.9
54439;BME280;40347;53.848;27.498;2023-02-11T04:31:29;1015.7;;;1.9;70.7
54439;BME280;40347;53.848;27.498;2023-02-11T04:36:17;1015.6;;;2;70.8
54439;BME280;40347;53.848;27.498;2023-02-11T04:41:07;1015.3;;;1.9;70.8
54439;BME280;40347;53.848;27.498;2023-02-11T04:46:17;1015.1;;;1.8;71.2
54439;BME280;40347;53.848;27.498;2023-02-11T04:51:17;1015;;;1.8;71.3
54439;BME280;40347;53.848;27.498;2023-02-11T04:56:07;1014.9;;;1.8;71.6
54439;BME280;40347;53.848;27.498;2023-02-11T05:01:15;1014.8;;;1.8;71.7
54439;BME280;40347;53.848;27.498;2023-02-11T05:06:08;1014.8;;;1.8;71.8
54439;BME280;40347;53.848;27.498;2023-02-11T05:11:27;1014.7;;;1.8;72.1
54439;BME280;40347;53.848;27.498;2023-02-11T05:16:31;1014.6;;;1.7;72
54439;BME280;40347;53.848;27.498;2023-02-11T05:21:27;1014.5;;;1.7;72.2
54439;BME280;40347;53.848;27.498;2023-02-11T05:26:19;1014.5;;;1.7;72.5
54439;BME280;40347;53.848;27.498;2023-02-11T05:31:07;1014.3;;;1.7;72.7
54439;BME280;40347;53.848;27.498;2023-02-11T05:36:07;1014.2;;;1.7;72.7
54439;BME280;40347;53.848;27.498;2023-02-11T05:41:07;1014.1;;;1.7;72.8
54439;BME280;40347;53.848;27.498;2023-02-11T05:46:07;1014;;;1.7;72.8
54439;BME280;40347;53.848;27.498;2023-02-11T05:51:07;1013.8;;;1.7;72.9
54439;BME280;40347;53.848;27.498;2023-02-11T05:56:19;1013.8;;;1.7;73.7
54439;BME280;40347;53.848;27.498;2023-02-11T06:01:07;1013.7;;;1.7;73.8
54439;BME280;40347;53.848;27.498;2023-02-11T06:06:08;1013.6;;;1.6;73.8
54439;BME280;40347;53.848;27.498;2023-02-11T06:11:29;1013.5;;;1.7;73.7
54439;BME280;40347;53.848;27.498;2023-02-11T06:16:19;1013.4;;;1.8;73.7
54439;BME280;40347;53.848;27.498;2023-02-11T06:21:07;1013.3;;;1.9;73.8
54439;BME280;40347;53.848;27.498;2023-02-11T06:26:29;1013.2;;;2;73.6
54439;BME280;40347;53.848;27.498;2023-02-11T06:31:27;1013.1;;;2;73.5
54439;BME280;40347;53.848;27.498;2023-02-11T06:36:10;1013;;;2;73.6
54439;BME280;40347;53.848;27.498;2023-02-11T06:41:08;1013;;;1.9;74
54439;BME280;40347;53.848;27.498;2023-02-11T06:46:07;1012.9;;;1.8;74.2
54439;BME280;40347;53.848;27.498;2023-02-11T06:51:08;1012.8;;;1.9;74.2
54439;BME280;40347;53.848;27.498;2023-02-11T06:56:07;1012.6;;;2;74
54439;BME280;40347;53.848;27.498;2023-02-11T07:01:07;1012.5;;;2;73.9
54439;BME280;40347;53.848;27.498;2023-02-11T07:06:07;1012.6;;;2.1;74
54439;BME280;40347;53.848;27.498;2023-02-11T07:11:07;1012.5;;;2.3;73.9
54439;BME280;40347;53.848;27.498;2023-02-11T07:16:29;1012.4;;;2.4;73.9
54439;BME280;40347;53.848;27.498;2023-02-11T07:21:09;1012.3;;;2.4;73.5
54439;BME280;40347;53.848;27.498;2023-02-11T07:26:31;1012.2;;;2.4;73.3
54439;BME280;40347;53.848;27.498;2023-02-11T07:31:07;1012.1;;;2.4;73.4
54439;BME280;40347;53.848;27.498;2023-02-11T07:36:07;1012;;;2.5;73.3
54439;BME280;40347;53.848;27.498;2023-02-11T07:41:08;1011.9;;;2.5;73.2
54439;BME280;40347;53.848;27.498;2023-02-11T07:46:08;1011.8;;;2.5;73.2
54439;BME280;40347;53.848;27.498;2023-02-11T07:51:07;1011.7;;;2.5;73.5
54439;BME280;40347;53.848;27.498;2023-02-11T07:56:17;1011.7;;;2.6;73.5
54439;BME280;40347;53.848;27.498;2023-02-11T08:01:18;1011.6;;;2.6;73.7
54439;BME280;40347;53.848;27.498;2023-02-11T08:06:07;1011.5;;;2.7;73.8
54439;BME280;40347;53.848;27.498;2023-02-11T08:11:07;1011.4;;;2.8;74.1
54439;BME280;40347;53.848;27.498;2023-02-11T08:16:07;1011.3;;;2.8;74
54439;BME280;40347;53.848;27.498;2023-02-11T08:21:17;1011.3;;;2.9;74.4
54439;BME280;40347;53.848;27.498;2023-02-11T08:26:17;1011.1;;;3;74.3
54439;BME280;40347;53.848;27.498;2023-02-11T08:31:27;1010.9;;;3.1;74.3
54439;BME280;40347;53.848;27.498;2023-02-11T08:36:30;1010.8;;;3.2;74.1
54439;BME280;40347;53.848;27.498;2023-02-11T08:41:27;1010.7;;;3.3;73.6
54439;BME280;40347;53.848;27.498;2023-02-11T08:46:07;1010.6;;;3.3;73.2
54439;BME280;40347;53.848;27.498;2023-02-11T08:51:27;1010.5;;;3.2;73.5
54439;BME280;40347;53.848;27.498;2023-02-11T08:56:07;1010.3;;;3.2;73.6
54439;BME280;40347;53.848;27.498;2023-02-11T09:01:29;1010.2;;;3.3;73.9
54439;BME280;40347;53.848;27.498;2023-02-11T09:06:19;1010.2;;;3.5;74
54439;BME280;40347;53.848;27.498;2023-02-11T09:11:20;1010.1;;;3.6;73.6
54439;BME280;40347;53.848;27.498;2023-02-11T09:16:17;1010;;;3.5;73.3
54439;BME280;40347;53.848;27.498;2023-02-11T09:21:29;1010;;;3.6;73.5
54439;BME280;40347;53.848;27.498;2023-02-11T09:26:17;1009.9;;;3.7;73.3
54439;BME280;40347;53.848;27.498;2023-02-11T09:31:07;1009.7;;;3.8;72.9
54439;BME280;40347;53.848;27.498;2023-02-11T09:36:20;1009.6;;;3.8;73
54439;BME280;40347;53.848;27.498;2023-02-11T09:41:24;1009.6;;;3.9;72.6
54439;BME280;40347;53.848;27.498;2023-02-11T09:46:08;1009.4;;;4;72.6
54439;BME280;40347;53.848;27.498;2023-02-11T09:51:31;1009.3;;;4;72.5
54439;BME280;40347;53.848;27.498;2023-02-11T09:56:17;1009.2;;;4;72.5
54439;BME280;40347;53.848;27.498;2023-02-11T10:01:21;1009.2;;;3.9;72.5
54439;BME280;40347;53.848;27.498;2023-02-11T10:06:23;1009.1;;;3.9;72.6
54439;BME280;40347;53.848;27.498;2023-02-11T10:11:18;1008.9;;;3.8;72.3
54439;BME280;40347;53.848;27.498;2023-02-11T10:16:35;1008.8;;;3.7;72.5
54439;BME280;40347;53.848;27.498;2023-02-11T10:21:18;1008.7;;;3.5;72.7
54439;BME280;40347;53.848;27.498;2023-02-11T10:26:09;1008.6;;;3.5;72.7
54439;BME280;40347;53.848;27.498;2023-02-11T10:31:18;1008.6;;;3.5;73
54439;BME280;40347;53.848;27.498;2023-02-11T10:36:07;1008.6;;;3.5;73.2
54439;BME280;40347;53.848;27.498;2023-02-11T10:41:19;1008.5;;;3.5;73.3
54439;BME280;40347;53.848;27.498;2023-02-11T10:46:09;1008.4;;;3.5;73.1
54439;BME280;40347;53.848;27.498;2023-02-11T10:51:11;1008.3;;;3.5;73.3
54439;BME280;40347;53.848;27.498;2023-02-11T10:56:20;1008.2;;;3.5;73.3
54439;BME280;40347;53.848;27.498;2023-02-11T11:01:19;1008.1;;;3.5;73.4
54439;BME280;40347;53.848;27.498;2023-02-11T11:06:07;1008.1;;;3.4;73.5
54439;BME280;40347;53.848;27.498;2023-02-11T11:11:08;1008;;;3.3;73.5
54439;BME280;40347;53.848;27.498;2023-02-11T11:16:08;1007.9;;;3.5;73.8
54439;BME280;40347;53.848;27.498;2023-02-11T11:21:18;1007.7;;;3.5;73.6
54439;BME280;40347;53.848;27.498;2023-02-11T11:26:08;1007.6;;;3.5;73.5
54439;BME280;40347;53.848;27.498;2023-02-11T11:31:20;1007.5;;;3.5;73.2
54439;BME280;40347;53.848;27.498;2023-02-11T11:36:08;1007.5;;;3.5;73.4
54439;BME280;40347;53.848;27.498;2023-02-11T11:41:17;1007.4;;;3.6;73.5
54439;BME280;40347;53.848;27.498;2023-02-11T11:46:21;1007.3;;;3.7;73.3
54439;BME280;40347;53.848;27.498;2023-02-11T11:51:08;1007.2;;;3.8;73.1
54439;BME280;40347;53.848;27.498;2023-02-11T11:56:08;1007.2;;;3.8;72.9
54439;BME280;40347;53.848;27.498;2023-02-11T12:01:13;1007.1;;;3.8;72.8
54439;BME280;40347;53.848;27.498;2023-02-11T12:06:20;1007;;;3.7;72.7
54439;BME280;40347;53.848;27.498;2023-02-11T12:11:08;1007;;;3.7;72.9
54439;BME280;40347;53.848;27.498;2023-02-11T12:16:19;1006.8;;;3.6;73.1
54439;BME280;40347;53.848;27.498;2023-02-11T12:21:20;1006.7;;;3.4;73.4
54439;BME280;40347;53.848;27.498;2023-02-11T12:26:30;1006.6;;;3.3;73.8
54439;BME280;40347;53.848;27.498;2023-02-11T12:31:13;1006.5;;;3.4;73.9
54439;BME280;40347;53.848;27.498;2023-02-11T12:36:08;1006.5;;;3.3;73.8
54439;BME280;40347;53.848;27.498;2023-02-11T12:41:43;1006.4;;;3.3;74.3
54439;BME280;40347;53.848;27.498;2023-02-11T12:46:09;1006.4;;;3.2;74.3
54439;BME280;40347;53.848;27.498;2023-02-11T12:51:32;1006.4;;;3.1;74.2
54439;BME280;40347;53.848;27.498;2023-02-11T12:56:17;1006.4;;;2.9;74.2
54439;BME280;40347;53.848;27.498;2023-02-11T13:01:28;1006.3;;;2.8;74.7
54439;BME280;40347;53.848;27.498;2023-02-11T13:06:17;1006.3;;;2.8;75.2
54439;BME280;40347;53.848;27.498;2023-02-11T13:11:27;1006.2;;;2.9;75.4
54439;BME280;40347;53.848;27.498;2023-02-11T13:16:53;1006.2;;;3;75.1
54439;BME280;40347;53.848;27.498;2023-02-11T13:21:29;1006.1;;;3.1;74.7
54439;BME280;40347;53.848;27.498;2023-02-11T13:26:09;1006.1;;;3;74.7
54439;BME280;40347;53.848;27.498;2023-02-11T13:31:07;1006.1;;;2.9;75.4
54439;BME280;40347;53.848;27.498;2023-02-11T13:36:20;1006;;;2.8;75.6
54439;BME280;40347;53.848;27.498;2023-02-11T13:41:14;1006;;;2.8;75.4
54439;BME280;40347;53.848;27.498;2023-02-11T13:46:47;1006.1;;;2.7;75.3
54439;BME280;40347;53.848;27.498;2023-02-11T13:51:07;1006;;;2.6;75.7
54439;BME280;40347;53.848;27.498;2023-02-11T13:56:27;1006;;;2.4;76
54439;BME280;40347;53.848;27.498;2023-02-11T14:01:07;1006;;;2.4;76.4
54439;BME280;40347;53.848;27.498;2023-02-11T14:06:18;1006;;;2.3;76.5
54439;BME280;40347;53.848;27.498;2023-02-11T14:11:41;1005.9;;;2.3;76.6
54439;BME280;40347;53.848;27.498;2023-02-11T14:16:07;1005.9;;;2.3;76.8
54439;BME280;40347;53.848;27.498;2023-02-11T14:21:30;1005.9;;;2.4;77.3
54439;BME280;40347;53.848;27.498;2023-02-11T14:26:17;1005.9;;;2.4;77.2
54439;BME280;40347;53.848;27.498;2023-02-11T14:31:29;1005.8;;;2.5;77.3
54439;BME280;40347;53.848;27.498;2023-02-11T14:36:22;1005.8;;;2.5;77.3
54439;BME280;40347;53.848;27.498;2023-02-11T14:41:19;1005.9;;;2.5;77.1
54439;BME280;40347;53.848;27.498;2023-02-11T14:46:17;1006;;;2.5;76.9
54439;BME280;40347;53.848;27.498;2023-02-11T14:51:27;1006;;;2.5;77
54439;BME280;40347;53.848;27.498;2023-02-11T14:56:18;1006;;;2.5;76.8
54439;BME280;40347;53.848;27.498;2023-02-11T15:01:26;1006;;;2.5;77.1
54439;BME280;40347;53.848;27.498;2023-02-11T15:06:30;1005.9;;;2.5;77.2
54439;BME280;40347;53.848;27.498;2023-02-11T15:11:18;1005.8;;;2.5;77.3
54439;BME280;40347;53.848;27.498;2023-02-11T15:16:07;1005.7;;;2.5;77.4
54439;BME280;40347;53.848;27.498;2023-02-11T15:21:19;1005.8;;;2.5;77.7
54439;BME280;40347;53.848;27.498;2023-02-11T15:26:39;1005.8;;;2.4;77.9
54439;BME280;40347;53.848;27.498;2023-02-11T15:31:12;1005.9;;;2.4;77.6
54439;BME280;40347;53.848;27.498;2023-02-11T15:36:18;1006;;;2.4;77.4
54439;BME280;40347;53.848;27.498;2023-02-11T15:41:37;1006;;;2.3;77.6
54439;BME280;40347;53.848;27.498;2023-02-11T15:46:30;1006;;;2.3;78.1
54439;BME280;40347;53.848;27.498;2023-02-11T15:51:18;1006.1;;;2.4;78
54439;BME280;40347;53.848;27.498;2023-02-11T15:56:09;1006.2;;;2.4;78.1
54439;BME280;40347;53.848;27.498;2023-02-11T16:01:26;1006.2;;;2.5;78.2
54439;BME280;40347;53.848;27.498;2023-02-11T16:06:18;1006.3;;;2.6;78.4
54439;BME280;40347;53.848;27.498;2023-02-11T16:11:20;1006.2;;;2.7;78.1
54439;BME280;40347;53.848;27.498;2023-02-11T16:16:14;1006.3;;;2.8;78
54439;BME280;40347;53.848;27.498;2023-02-11T16:21:19;1006.3;;;2.8;78.2
54439;BME280;40347;53.848;27.498;2023-02-11T16:26:09;1006.2;;;2.8;78.7
54439;BME280;40347;53.848;27.498;2023-02-11T16:31:19;1006.2;;;2.9;78.5
54439;BME280;40347;53.848;27.498;2023-02-11T16:36:17;1006.3;;;2.9;78.7
54439;BME280;40347;53.848;27.498;2023-02-11T16:41:27;1006.4;;;2.9;79.1
54439;BME280;40347;53.848;27.498;2023-02-11T16:46:07;1006.5;;;2.9;79.2
54439;BME280;40347;53.848;27.498;2023-02-11T16:51:07;1006.5;;;2.9;79.2
54439;BME280;40347;53.848;27.498;2023-02-11T16:56:31;1006.5;;;3;79.3
54439;BME280;40347;53.848;27.498;2023-02-11T17:01:07;1006.6;;;3;79.3
54439;BME280;40347;53.848;27.498;2023-02-11T17:06:31;1006.8;;;3.1;79.3
54439;BME280;40347;53.848;27.498;2023-02-11T17:11:07;1006.8;;;3;79.1
54439;BME280;40347;53.848;27.498;2023-02-11T17:16:09;1006.9;;;3;79.2
54439;BME280;40347;53.848;27.498;2023-02-11T17:21:17;1007;;;3;79.1
54439;BME280;40347;53.848;27.498;2023-02-11T17:26:07;1007.1;;;3.1;79.2
54439;BME280;40347;53.848;27.498;2023-02-11T17:31:07;1007.2;;;3.1;78.8
54439;BME280;40347;53.848;27.498;2023-02-11T17:36:17;1007.3;;;3.1;78.7
54439;BME280;40347;53.848;27.498;2023-02-11T17:41:19;1007.3;;;3.3;78.6
54439;BME280;40347;53.848;27.498;2023-02-11T17:46:17;1007.5;;;3.3;78.4
54439;BME280;40347;53.848;27.498;2023-02-11T17:51:30;1007.6;;;3.5;78.4
54439;BME280;40347;53.848;27.498;2023-02-11T17:56:07;1007.8;;;3.6;78.1
54439;BME280;40347;53.848;27.498;2023-02-11T18:01:19;1007.9;;;3.7;77.6
54439;BME280;40347;53.848;27.498;2023-02-11T18:06:30;1008;;;3.7;77.2
54439;BME280;40347;53.848;27.498;2023-02-11T18:11:17;1008.2;;;3.7;77.1
54439;BME280;40347;53.848;27.498;2023-02-11T18:16:17;1008.4;;;3.6;77.2
54439;BME280;40347;53.848;27.498;2023-02-11T18:21:07;1008.5;;;3.5;77.5
54439;BME280;40347;53.848;27.498;2023-02-11T18:26:17;1008.6;;;3.5;77.6
54439;BME280;40347;53.848;27.498;2023-02-11T18:31:07;1008.8;;;3;77.7
54439;BME280;40347;53.848;27.498;2023-02-11T18:36:19;1008.9;;;3.1;78
54439;BME280;40347;53.848;27.498;2023-02-11T18:41:30;1009.2;;;3.2;78
54439;BME280;40347;53.848;27.498;2023-02-11T18:46:07;1009.3;;;3.1;77.5
54439;BME280;40347;53.848;27.498;2023-02-11T18:51:07;1009.4;;;3.1;77.1
54439;BME280;40347;53.848;27.498;2023-02-11T18:56:07;1009.6;;;3.1;76.7
54439;BME280;40347;53.848;27.498;2023-02-11T19:01:09;1009.7;;;3.2;76.2
54439;BME280;40347;53.848;27.498;2023-02-11T19:06:11;1009.9;;;3.2;75.7
54439;BME280;40347;53.848;27.498;2023-02-11T19:11:17;1010.1;;;3.1;75.4
54439;BME280;40347;53.848;27.498;2023-02-11T19:16:07;1010.3;;;2.9;75.9
54439;BME280;40347;53.848;27.498;2023-02-11T19:21:07;1010.5;;;2.8;75.9
54439;BME280;40347;53.848;27.498;2023-02-11T19:26:07;1010.6;;;2.8;75.7
54439;BME280;40347;53.848;27.498;2023-02-11T19:31:07;1010.7;;;2.9;75.6
54439;BME280;40347;53.848;27.498;2023-02-11T19:36:07;1010.8;;;2.9;75.3
54439;BME280;40347;53.848;27.498;2023-02-11T19:41:19;1011;;;2.8;75.2
54439;BME280;40347;53.848;27.498;2023-02-11T19:46:39;1011.1;;;2.8;75.6
54439;BME280;40347;53.848;27.498;2023-02-11T19:51:17;1011.3;;;2.3;77
54439;BME280;40347;53.848;27.498;2023-02-11T19:56:07;1011.4;;;1.9;78.5
54439;BME280;40347;53.848;27.498;2023-02-11T20:01:17;1011.5;;;1.9;78.7
54439;BME280;40347;53.848;27.498;2023-02-11T20:06:17;1011.7;;;2;78.5
54439;BME280;40347;53.848;27.498;2023-02-11T20:11:17;1011.7;;;1.7;78.1
54439;BME280;40347;53.848;27.498;2023-02-11T20:16:08;1011.9;;;1.8;78.1
54439;BME280;40347;53.848;27.498;2023-02-11T20:21:07;1012.1;;;1.7;77.9
54439;BME280;40347;53.848;27.498;2023-02-11T20:26:19;1012.4;;;1.5;77.7
54439;BME280;40347;53.848;27.498;2023-02-11T20:31:19;1012.5;;;1.1;76.7
54439;BME280;40347;53.848;27.498;2023-02-11T20:36:30;1012.7;;;0.9;75.7
54439;BME280;40347;53.848;27.498;2023-02-11T20:41:08;1013;;;0.8;74.3
54439;BME280;40347;53.848;27.498;2023-02-11T20:46:20;1013.2;;;0.3;72.7
54439;BME280;40347;53.848;27.498;2023-02-11T20:51:19;1013.3;;;0.2;71.9
54439;BME280;40347;53.848;27.498;2023-02-11T20:56:19;1013.5;;;-0.1;71.5
54439;BME280;40347;53.848;27.498;2023-02-11T21:01:17;1013.7;;;0.1;71.2
54439;BME280;40347;53.848;27.498;2023-02-11T21:06:07;1013.8;;;0.2;71.4
54439;BME280;40347;53.848;27.498;2023-02-11T21:11:07;1014;;;0.1;70.8
54439;BME280;40347;53.848;27.498;2023-02-11T21:16:41;1014.1;;;0.1;70.2
54439;BME280;40347;53.848;27.498;2023-02-11T21:21:19;1014.3;;;-0.3;70.1
54439;BME280;40347;53.848;27.498;2023-02-11T21:26:07;1014.4;;;-0.5;70.3
54439;BME280;40347;53.848;27.498;2023-02-11T21:31:28;1014.6;;;-0.4;69.6
54439;BME280;40347;53.848;27.498;2023-02-11T21:36:17;1014.7;;;-0.5;69.3
54439;BME280;40347;53.848;27.498;2023-02-11T21:41:19;1014.9;;;-0.9;69.7
54439;BME280;40347;53.848;27.498;2023-02-11T21:46:29;1015;;;-0.9;70
54439;BME280;40347;53.848;27.498;2023-02-11T21:51:29;1015.1;;;-0.8;69.8
54439;BME280;40347;53.848;27.498;2023-02-11T21:56:29;1015.4;;;-0.7;69.3
54439;BME280;40347;53.848;27.498;2023-02-11T22:01:08;1015.5;;;-0.7;69.1
54439;BME280;40347;53.848;27.498;2023-02-11T22:06:32;1015.7;;;-1;68.9
54439;BME280;40347;53.848;27.498;2023-02-11T22:11:08;1015.8;;;-0.9;68.7
54439;BME280;40347;53.848;27.498;2023-02-11T22:16:29;1015.9;;;-1;68.5
54439;BME280;40347;53.848;27.498;2023-02-11T22:21:07;1016;;;-0.9;69
54439;BME280;40347;53.848;27.498;2023-02-11T22:26:19;1016.2;;;-0.7;68.5
54439;BME280;40347;53.848;27.498;2023-02-11T22:31:08;1016.3;;;-0.7;68.3
54439;BME280;40347;53.848;27.498;2023-02-11T22:36:30;1016.5;;;-0.9;68.6
54439;BME280;40347;53.848;27.498;2023-02-11T22:41:17;1016.5;;;-0.9;69.1
54439;BME280;40347;53.848;27.498;2023-02-11T22:46:07;1016.7;;;-1.1;68.8
54439;BME280;40347;53.848;27.498;2023-02-11T22:51:09;1016.8;;;-1.2;68.7
54439;BME280;40347;53.848;27.498;2023-02-11T22:56:07;1016.9;;;-1;68.2
54439;BME280;40347;53.848;27.498;2023-02-11T23:01:07;1017.2;;;-1;67.7
54439;BME280;40347;53.848;27.498;2023-02-11T23:06:27;1017.4;;;-1.1;67.9
54439;BME280;40347;53.848;27.498;2023-02-11T23:11:08;1017.6;;;-1.2;68.5
54439;BME280;40347;53.848;27.498;2023-02-11T23:16:28;1017.6;;;-1.4;68.9
54439;BME280;40347;53.848;27.498;2023-02-11T23:21:41;1017.8;;;-1;68.5
54439;BME280;40347;53.848;27.498;2023-02-11T23:26:17;1017.9;;;-1;67.7
54439;BME280;40347;53.848;27.498;2023-02-11T23:31:17;1018.1;;;-1.3;67.9
54439;BME280;40347;53.848;27.498;2023-02-11T23:36:19;1018.1;;;-1.2;68.1
54439;BME280;40347;53.848;27.498;2023-02-11T23:41:17;1018.3;;;-1.1;68
54439;BME280;40347;53.848;27.498;2023-02-11T23:46:07;1018.4;;;-1.1;67.9
54439;BME280;40347;53.848;27.498;2023-02-11T23:51:17;1018.5;;;-1.1;67.9
54439;BME280;40347;53.848;27.498;2023-02-11T23:56:31;1018.6;;;-1.1;67.9
